sensor_id;sensor_type;location;lat;lon;timestamp;P1;durP1;ratioP1;P2;durP2;ratioP2
50689;SDS011;54375;48.298;11.238;2023-02-23T00:10:32;33.05;;;18.95;;
50689;SDS011;54375;48.298;11.238;2023-02-23T00:25:36;35.40;;;21.45;;
50689;SDS011;54375;48.298;11.238;2023-02-23T00:40:39;37.17;;;23.10;;
50689;SDS011;54375;48.298;11.238;2023-02-23T00:55:42;37.08;;;22.17;;
50689;SDS011;54375;48.298;11.238;2023-02-23T01:10:44;34.65;;;22.20;;
50689;SDS011;54375;48.298;11.238;2023-02-23T01:25:46;37.38;;;23.63;;
50689;SDS011;54375;48.298;11.238;2023-02-23T01:40:49;29.70;;;18.70;;
50689;SDS011;54375;48.298;11.238;2023-02-23T01:55:53;36.95;;;22.98;;
50689;SDS011;54375;48.298;11.238;2023-02-23T02:10:57;41.63;;;24.55;;
50689;SDS011;54375;48.298;11.238;2023-02-23T02:26:02;34.60;;;22.05;;
50689;SDS011;54375;48.298;11.238;2023-02-23T02:41:12;41.97;;;24.77;;
50689;SDS011;54375;48.298;11.238;2023-02-23T02:56:20;29.88;;;17.90;;
50689;SDS011;54375;48.298;11.238;2023-02-23T03:11:28;34.20;;;21.25;;
50689;SDS011;54375;48.298;11.238;2023-02-23T03:41:44;39.15;;;22.33;;
50689;SDS011;54375;48.298;11.238;2023-02-23T03:56:50;32.78;;;20.20;;
50689;SDS011;54375;48.298;11.238;2023-02-23T04:11:54;31.85;;;19.98;;
50689;SDS011;54375;48.298;11.238;2023-02-23T04:26:59;31.55;;;18.52;;
50689;SDS011;54375;48.298;11.238;2023-02-23T04:42:01;39.88;;;22.33;;
50689;SDS011;54375;48.298;11.238;2023-02-23T04:57:04;37.83;;;23.70;;
50689;SDS011;54375;48.298;11.238;2023-02-23T05:12:08;34.33;;;21.90;;
50689;SDS011;54375;48.298;11.238;2023-02-23T05:27:10;32.72;;;20.13;;
50689;SDS011;54375;48.298;11.238;2023-02-23T05:42:12;31.13;;;19.58;;
50689;SDS011;54375;48.298;11.238;2023-02-23T05:57:14;30.33;;;18.48;;
50689;SDS011;54375;48.298;11.238;2023-02-23T06:12:16;30.08;;;17.92;;
50689;SDS011;54375;48.298;11.238;2023-02-23T06:27:19;31.23;;;19.98;;
50689;SDS011;54375;48.298;11.238;2023-02-23T06:42:21;36.88;;;21.45;;
50689;SDS011;54375;48.298;11.238;2023-02-23T06:57:24;33.33;;;21.77;;
50689;SDS011;54375;48.298;11.238;2023-02-23T07:12:26;33.22;;;21.08;;
50689;SDS011;54375;48.298;11.238;2023-02-23T07:27:28;33.90;;;21.48;;
50689;SDS011;54375;48.298;11.238;2023-02-23T07:42:30;36.50;;;22.17;;
50689;SDS011;54375;48.298;11.238;2023-02-23T07:57:33;37.25;;;22.50;;
50689;SDS011;54375;48.298;11.238;2023-02-23T08:12:36;34.92;;;19.83;;
50689;SDS011;54375;48.298;11.238;2023-02-23T08:27:38;35.72;;;22.13;;
50689;SDS011;54375;48.298;11.238;2023-02-23T08:42:40;43.08;;;25.60;;
50689;SDS011;54375;48.298;11.238;2023-02-23T08:57:42;41.17;;;23.38;;
50689;SDS011;54375;48.298;11.238;2023-02-23T09:12:44;35.58;;;22.15;;
50689;SDS011;54375;48.298;11.238;2023-02-23T09:27:46;31.52;;;19.40;;
50689;SDS011;54375;48.298;11.238;2023-02-23T09:42:51;32.05;;;18.98;;
50689;SDS011;54375;48.298;11.238;2023-02-23T09:58:01;27.55;;;17.13;;
50689;SDS011;54375;48.298;11.238;2023-02-23T10:13:10;30.13;;;18.53;;
50689;SDS011;54375;48.298;11.238;2023-02-23T10:28:22;19.05;;;12.10;;
50689;SDS011;54375;48.298;11.238;2023-02-23T10:43:24;17.63;;;11.63;;
50689;SDS011;54375;48.298;11.238;2023-02-23T10:58:26;19.83;;;10.27;;
50689;SDS011;54375;48.298;11.238;2023-02-23T11:13:32;15.38;;;7.65;;
50689;SDS011;54375;48.298;11.238;2023-02-23T11:28:39;17.42;;;10.75;;
50689;SDS011;54375;48.298;11.238;2023-02-23T11:43:44;13.27;;;8.00;;
50689;SDS011;54375;48.298;11.238;2023-02-23T11:58:49;13.75;;;8.90;;
50689;SDS011;54375;48.298;11.238;2023-02-23T12:13:54;10.48;;;6.57;;
50689;SDS011;54375;48.298;11.238;2023-02-23T12:29:03;10.13;;;6.05;;
50689;SDS011;54375;48.298;11.238;2023-02-23T12:44:13;13.40;;;8.27;;
50689;SDS011;54375;48.298;11.238;2023-02-23T13:14:49;13.30;;;8.00;;
50689;SDS011;54375;48.298;11.238;2023-02-23T13:29:57;10.43;;;7.30;;
50689;SDS011;54375;48.298;11.238;2023-02-23T13:45:05;16.40;;;9.20;;
50689;SDS011;54375;48.298;11.238;2023-02-23T14:00:22;10.88;;;5.93;;
50689;SDS011;54375;48.298;11.238;2023-02-23T14:15:28;15.57;;;7.30;;
50689;SDS011;54375;48.298;11.238;2023-02-23T14:30:44;12.40;;;7.28;;
50689;SDS011;54375;48.298;11.238;2023-02-23T14:45:49;9.82;;;6.68;;
50689;SDS011;54375;48.298;11.238;2023-02-23T15:00:56;11.75;;;8.50;;
50689;SDS011;54375;48.298;11.238;2023-02-23T15:16:00;11.20;;;7.90;;
50689;SDS011;54375;48.298;11.238;2023-02-23T15:31:08;13.27;;;8.38;;
50689;SDS011;54375;48.298;11.238;2023-02-23T15:46:13;12.93;;;8.00;;
50689;SDS011;54375;48.298;11.238;2023-02-23T16:01:23;14.25;;;8.55;;
50689;SDS011;54375;48.298;11.238;2023-02-23T16:16:28;13.40;;;7.30;;
50689;SDS011;54375;48.298;11.238;2023-02-23T16:31:40;13.23;;;9.35;;
50689;SDS011;54375;48.298;11.238;2023-02-23T16:47:09;16.30;;;9.77;;
50689;SDS011;54375;48.298;11.238;2023-02-23T17:02:27;13.43;;;8.35;;
50689;SDS011;54375;48.298;11.238;2023-02-23T17:17:30;12.00;;;6.95;;
50689;SDS011;54375;48.298;11.238;2023-02-23T17:32:32;13.90;;;8.15;;
50689;SDS011;54375;48.298;11.238;2023-02-23T17:47:36;17.08;;;9.20;;
50689;SDS011;54375;48.298;11.238;2023-02-23T18:02:38;16.95;;;9.55;;
50689;SDS011;54375;48.298;11.238;2023-02-23T18:17:42;18.73;;;10.68;;
50689;SDS011;54375;48.298;11.238;2023-02-23T18:32:44;20.77;;;11.27;;
50689;SDS011;54375;48.298;11.238;2023-02-23T18:47:47;26.75;;;15.38;;
50689;SDS011;54375;48.298;11.238;2023-02-23T19:02:49;28.85;;;17.52;;
50689;SDS011;54375;48.298;11.238;2023-02-23T19:17:51;21.65;;;12.35;;
50689;SDS011;54375;48.298;11.238;2023-02-23T19:32:54;18.88;;;10.98;;
50689;SDS011;54375;48.298;11.238;2023-02-23T19:47:56;28.63;;;16.95;;
50689;SDS011;54375;48.298;11.238;2023-02-23T20:02:58;25.58;;;16.40;;
50689;SDS011;54375;48.298;11.238;2023-02-23T20:18:00;45.17;;;26.88;;
50689;SDS011;54375;48.298;11.238;2023-02-23T20:33:03;34.05;;;21.10;;
50689;SDS011;54375;48.298;11.238;2023-02-23T20:48:05;35.15;;;20.20;;
50689;SDS011;54375;48.298;11.238;2023-02-23T21:03:08;26.98;;;15.45;;
50689;SDS011;54375;48.298;11.238;2023-02-23T21:18:11;40.22;;;20.73;;
50689;SDS011;54375;48.298;11.238;2023-02-23T21:33:14;50.53;;;31.17;;
50689;SDS011;54375;48.298;11.238;2023-02-23T21:48:16;21.27;;;12.60;;
50689;SDS011;54375;48.298;11.238;2023-02-23T22:03:19;20.02;;;13.52;;
50689;SDS011;54375;48.298;11.238;2023-02-23T22:18:22;17.50;;;11.70;;
50689;SDS011;54375;48.298;11.238;2023-02-23T22:33:24;23.38;;;15.32;;
50689;SDS011;54375;48.298;11.238;2023-02-23T22:48:27;33.55;;;19.75;;
50689;SDS011;54375;48.298;11.238;2023-02-23T23:03:29;22.35;;;14.23;;
50689;SDS011;54375;48.298;11.238;2023-02-23T23:18:32;23.23;;;13.93;;
50689;SDS011;54375;48.298;11.238;2023-02-23T23:33:35;18.30;;;11.80;;
50689;SDS011;54375;48.298;11.238;2023-02-23T23:48:38;24.77;;;15.68;;
